Terminal Aerodrome Forecast
Issued by NWS

Home | Current Version | Previous Version | Graphics & Text | Print | Product List | Glossary On
Versions: 1 2 3 4 5 6 7 8 9 10 11 12 13 14 15 16 17
000
FTUS43 KGRB 212320
TAFMTW
TAF
KMTW 212320Z 2200/2224 02012G17KT P6SM -SHSN BKN050
     FM220300 36010G15KT P6SM SCT040
     FM221600 04007KT P6SM SCT250
     FM222100 11007KT P6SM BKN150=

USA.gov is the U.S. government's official web portal to all federal, state and local government web resources and services.